Cotter, Iowa
Current Conditions -  °F | °C
As of 12:55 AM on Friday 28 Nov 2014 (Local Time) from KAWG Reporting Station
Broken Clouds Broken Clouds  
Wind Chill:   Ceiling: 12000
Heat Index: 14°   Visibility: 10mi
Dew Point:   Wind: 7mph
Humidity: 79%   Direction: 130°SE
Pressure: 30.33"   Gusts: NA
Location:  41.2636°N, 91.4145°W
Report Text: KAWG 280655Z AUTO 13006KT 10SM SCT075 BKN120 M10/M13 A3033 RMK AO2
Loading
Personal Weather Stations






























Interactive Weather Map New forecast layout! Learn more

10-Day Weather Forecast

Advertisements
Track Severe Weather on mobile